LKKU METAR and TAF | Updated Today

LKKU METAR

Kunovice Airport

Observation time: 48 min. ago

LKKU 061800Z 01008KT CAVOK M04/M08 Q1038

Need help? Read our tutorial on how to read METARs or read the parsed version below.

Kunovice Airport (LKKU) METAR

  • Weather conditions on Mon, 06 Feb 2023 18:00:00 +0000 (48 min. ago):
  • Present conditions: Dry
  • Clouds: Clear skies
  • Visibility: Greater than 10 km
  • Wind: 10 degrees at 8 knots
  • Temperature: -4 celsius
  • Dew point: -8 celsius
  • Pressure: 1038 millibars
  • Remarks: None


Useful to know...